createdAt,value
2023-08-26T00:02:09.392Z,96.29
2023-08-26T00:04:36.124Z,95.26
2023-08-26T00:07:02.802Z,95.39
2023-08-26T00:09:29.421Z,94.78
2023-08-26T00:11:56.350Z,93.55
2023-08-26T00:14:23.115Z,92.61
2023-08-26T00:16:49.769Z,92.43
2023-08-26T00:19:17.756Z,91.63
2023-08-26T00:21:44.572Z,90.97
2023-08-26T00:24:12.786Z,90.87
2023-08-26T00:26:39.558Z,91.28
2023-08-26T00:29:06.570Z,92.45
2023-08-26T00:31:33.246Z,93.94
2023-08-26T00:34:03.638Z,93.84
2023-08-26T00:36:31.868Z,94.19
2023-08-26T00:38:59.185Z,93.62
2023-08-26T00:41:26.153Z,93.42
2023-08-26T00:43:52.832Z,93.93
2023-08-26T00:46:19.709Z,94.03
2023-08-26T00:48:46.386Z,93.30
2023-08-26T00:51:13.106Z,93.08
2023-08-26T00:53:39.807Z,93.58
2023-08-26T00:56:06.514Z,93.43
2023-08-26T00:58:33.421Z,94.01
2023-08-26T01:01:00.216Z,95.15
2023-08-26T01:03:27.007Z,95.20
2023-08-26T01:05:53.750Z,92.48
2023-08-26T01:08:20.704Z,91.83
2023-08-26T01:11:22.059Z,93.13
2023-08-26T01:14:02.150Z,93.63
2023-08-26T01:16:32.247Z,93.55
2023-08-26T01:19:00.360Z,94.40
2023-08-26T01:21:35.610Z,96.02
2023-08-26T01:24:02.867Z,96.70
2023-08-26T01:26:29.611Z,94.93
2023-08-26T01:28:56.608Z,93.69
2023-08-26T01:31:23.619Z,93.95
2023-08-26T01:34:01.006Z,92.54
2023-08-26T01:36:31.045Z,94.05
2023-08-26T01:38:58.728Z,95.33
2023-08-26T01:41:26.632Z,94.60
2023-08-26T01:43:55.018Z,95.18
2023-08-26T01:46:34.914Z,96.26
2023-08-26T01:49:01.597Z,96.95
2023-08-26T01:51:28.304Z,96.79
2023-08-26T01:53:54.947Z,97.65
2023-08-26T01:56:21.498Z,97.34
2023-08-26T01:58:48.195Z,95.95
2023-08-26T02:01:14.704Z,95.71
2023-08-26T02:03:41.413Z,96.89
2023-08-26T02:06:08.172Z,97.66
2023-08-26T02:08:34.678Z,97.18
2023-08-26T02:11:01.333Z,96.66
2023-08-26T02:13:27.867Z,97.06
2023-08-26T02:15:56.169Z,97.59
2023-08-26T02:18:23.170Z,97.09
2023-08-26T02:20:49.809Z,98.63
2023-08-26T02:23:16.572Z,97.59
2023-08-26T02:25:43.343Z,97.58
2023-08-26T02:28:10.496Z,97.70
2023-08-26T02:30:37.194Z,98.15
2023-08-26T02:33:04.203Z,98.36
2023-08-26T02:35:31.264Z,98.04
2023-08-26T02:37:58.284Z,97.70
2023-08-26T02:40:25.108Z,97.40
2023-08-26T02:42:51.638Z,96.36
2023-08-26T02:45:18.453Z,96.75
2023-08-26T02:47:45.613Z,96.72
2023-08-26T02:50:12.276Z,97.17
2023-08-26T02:52:38.789Z,97.25
2023-08-26T02:55:05.781Z,96.66
2023-08-26T02:57:32.903Z,96.40
2023-08-26T02:59:59.578Z,97.10
2023-08-26T03:02:26.420Z,96.93
2023-08-26T03:04:53.260Z,97.11
2023-08-26T03:07:19.974Z,97.41
2023-08-26T03:09:46.458Z,97.57
2023-08-26T03:12:13.367Z,96.99
2023-08-26T03:14:40.028Z,96.36
2023-08-26T03:17:06.674Z,96.47
2023-08-26T03:19:34.714Z,96.81
2023-08-26T03:22:01.336Z,96.71
2023-08-26T03:24:28.286Z,96.72
2023-08-26T03:26:54.925Z,96.41
2023-08-26T03:29:21.605Z,96.69
2023-08-26T03:31:51.263Z,96.73
2023-08-26T03:34:17.918Z,97.37
2023-08-26T03:36:44.589Z,97.71
2023-08-26T03:39:11.189Z,98.59
2023-08-26T03:41:37.889Z,97.99
2023-08-26T03:44:05.400Z,97.96
2023-08-26T03:46:32.399Z,97.54
2023-08-26T03:48:59.062Z,97.01
2023-08-26T03:51:25.594Z,97.59
2023-08-26T03:53:52.298Z,97.01
2023-08-26T03:56:18.810Z,97.10
2023-08-26T03:58:45.463Z,98.33
2023-08-26T04:01:12.020Z,98.81
2023-08-26T04:03:38.791Z,97.22
2023-08-26T04:06:06.238Z,96.95
2023-08-26T04:08:34.156Z,96.66
2023-08-26T04:11:02.116Z,96.53
2023-08-26T04:13:29.957Z,95.07
2023-08-26T04:15:57.928Z,94.00
2023-08-26T04:18:24.972Z,93.45
2023-08-26T04:20:53.622Z,93.65
2023-08-26T04:23:20.454Z,93.04
2023-08-26T04:25:47.230Z,92.06
2023-08-26T04:28:15.511Z,92.73
2023-08-26T04:30:42.283Z,91.19
2023-08-26T04:33:09.046Z,90.91
2023-08-26T04:35:35.901Z,91.40
2023-08-26T04:38:02.802Z,90.34
2023-08-26T04:40:29.698Z,91.42
2023-08-26T04:42:59.231Z,91.03
2023-08-26T04:45:26.061Z,90.86
2023-08-26T04:47:53.027Z,90.25
2023-08-26T04:50:19.835Z,90.57
2023-08-26T04:52:46.334Z,90.88
2023-08-26T04:55:13.017Z,90.45
2023-08-26T04:57:39.589Z,89.33
2023-08-26T05:00:11.285Z,87.86
2023-08-26T05:02:41.071Z,87.09
2023-08-26T05:05:08.175Z,85.66
2023-08-26T05:07:34.997Z,85.01
2023-08-26T05:10:04.622Z,84.04
2023-08-26T05:12:31.948Z,83.23
2023-08-26T05:14:58.646Z,84.14
2023-08-26T05:17:25.342Z,85.48
2023-08-26T05:19:52.718Z,85.95
2023-08-26T05:22:19.389Z,84.50
2023-08-26T05:24:46.006Z,87.22
2023-08-26T05:27:15.169Z,87.40
2023-08-26T05:29:41.871Z,86.40
2023-08-26T05:32:08.369Z,86.45
2023-08-26T05:34:35.072Z,86.44
2023-08-26T05:37:01.554Z,87.48
2023-08-26T05:39:28.477Z,88.33
2023-08-26T05:41:55.196Z,88.36
2023-08-26T05:44:21.828Z,86.33
2023-08-26T05:46:48.375Z,81.43
2023-08-26T05:49:15.004Z,82.73
2023-08-26T05:51:41.520Z,84.86
2023-08-26T05:54:08.184Z,85.62
2023-08-26T05:56:34.850Z,85.07
2023-08-26T05:59:01.510Z,84.42
2023-08-26T06:01:28.126Z,83.82
2023-08-26T06:03:55.942Z,80.72
2023-08-26T06:06:22.702Z,81.89
2023-08-26T06:08:49.323Z,84.42
2023-08-26T06:11:15.852Z,79.25
2023-08-26T06:13:42.474Z,77.86
2023-08-26T06:16:09.020Z,80.70
2023-08-26T06:18:35.714Z,83.53
2023-08-26T06:21:02.358Z,85.61
2023-08-26T06:23:30.285Z,85.23
2023-08-26T06:25:58.296Z,86.91
2023-08-26T06:28:25.618Z,89.13
2023-08-26T06:30:58.522Z,89.28
2023-08-26T06:33:25.024Z,89.11
2023-08-26T06:35:51.665Z,90.61
2023-08-26T06:38:18.254Z,91.95
2023-08-26T06:40:44.921Z,89.66
2023-08-26T06:43:11.591Z,86.44
2023-08-26T06:45:38.655Z,85.89
2023-08-26T06:48:07.366Z,87.83
2023-08-26T06:50:35.423Z,89.07
2023-08-26T06:53:02.079Z,89.55
2023-08-26T06:55:28.622Z,90.43
2023-08-26T06:57:55.619Z,88.63
2023-08-26T07:00:22.739Z,87.05
2023-08-26T07:02:49.441Z,87.48
2023-08-26T07:05:16.838Z,82.87
2023-08-26T07:07:43.598Z,80.16
2023-08-26T07:10:11.055Z,76.86
2023-08-26T07:12:38.244Z,75.65
2023-08-26T07:15:05.485Z,75.87
2023-08-26T07:17:32.185Z,77.05
2023-08-26T07:19:58.733Z,78.52
2023-08-26T07:22:29.951Z,84.68
2023-08-26T07:24:57.288Z,90.64
2023-08-26T07:27:24.612Z,91.57
2023-08-26T07:29:51.376Z,93.55
2023-08-26T07:32:18.067Z,94.02
2023-08-26T07:34:44.705Z,94.72
2023-08-26T07:37:11.426Z,95.20
2023-08-26T07:39:38.097Z,96.50
2023-08-26T07:42:05.197Z,94.71
2023-08-26T07:44:31.833Z,92.45
2023-08-26T07:46:58.497Z,89.68
2023-08-26T07:49:25.219Z,86.76
2023-08-26T07:51:51.966Z,82.76
2023-08-26T07:54:18.640Z,80.92
2023-08-26T07:56:45.349Z,78.13
2023-08-26T07:59:11.976Z,76.01
2023-08-26T08:01:38.684Z,75.10
2023-08-26T08:04:05.674Z,73.70
2023-08-26T08:06:32.417Z,70.12
2023-08-26T08:08:59.148Z,70.14
2023-08-26T08:11:25.790Z,69.22
2023-08-26T08:13:52.505Z,67.63
2023-08-26T08:16:19.224Z,67.08
2023-08-26T08:18:45.871Z,66.00
2023-08-26T08:21:12.545Z,64.09
2023-08-26T08:23:39.582Z,61.34
2023-08-26T08:26:06.301Z,59.23
2023-08-26T08:28:32.938Z,56.98
2023-08-26T08:31:00.163Z,56.32
2023-08-26T08:33:27.017Z,54.43
2023-08-26T08:35:53.660Z,53.34
2023-08-26T08:38:20.297Z,51.78
2023-08-26T08:40:47.278Z,51.21
2023-08-26T08:43:14.849Z,50.37
2023-08-26T08:45:42.433Z,49.15
2023-08-26T08:48:10.979Z,49.12
2023-08-26T08:50:37.998Z,48.85
2023-08-26T08:53:06.762Z,47.22
2023-08-26T08:55:35.167Z,48.93
2023-08-26T08:58:03.699Z,48.94
2023-08-26T09:00:31.077Z,47.13
2023-08-26T09:02:59.776Z,46.52
2023-08-26T09:05:27.258Z,45.83
2023-08-26T09:07:55.858Z,45.57
2023-08-26T09:10:26.829Z,45.28
2023-08-26T09:12:53.546Z,45.59
2023-08-26T09:15:20.286Z,45.69
2023-08-26T09:17:51.503Z,46.89
2023-08-26T09:20:18.267Z,43.97
2023-08-26T09:22:44.940Z,42.69
2023-08-26T09:25:11.595Z,42.02
2023-08-26T09:27:42.850Z,42.67
2023-08-26T09:30:10.642Z,43.05
2023-08-26T09:32:39.043Z,42.39
2023-08-26T09:35:10.368Z,42.29
2023-08-26T09:37:37.982Z,41.19
2023-08-26T09:40:06.124Z,40.85
2023-08-26T09:42:34.049Z,39.77
2023-08-26T09:45:00.962Z,38.03
2023-08-26T09:47:37.548Z,37.71
2023-08-26T09:50:06.212Z,38.54
2023-08-26T09:52:47.714Z,37.38
2023-08-26T09:55:15.146Z,38.07
2023-08-26T09:57:42.689Z,37.09
2023-08-26T10:00:11.611Z,38.82
2023-08-26T10:02:43.718Z,39.19
2023-08-26T10:05:18.142Z,39.94
2023-08-26T10:07:49.186Z,41.94
2023-08-26T10:10:44.122Z,44.27
2023-08-26T10:13:11.118Z,44.29
2023-08-26T10:15:38.293Z,42.31
2023-08-26T10:18:20.064Z,40.18
2023-08-26T10:20:47.551Z,41.97
2023-08-26T10:23:14.254Z,40.99
2023-08-26T10:25:41.731Z,44.17
2023-08-26T10:28:08.868Z,42.01
2023-08-26T10:30:35.852Z,45.63
2023-08-26T10:33:04.273Z,45.42
2023-08-26T10:35:31.104Z,45.74
2023-08-26T10:38:15.807Z,42.52
2023-08-26T10:40:43.517Z,42.16
2023-08-26T10:43:13.500Z,45.24
2023-08-26T10:45:51.401Z,42.82
2023-08-26T10:48:19.536Z,43.77
2023-08-26T10:51:02.559Z,41.27
2023-08-26T10:53:29.781Z,42.80
2023-08-26T10:56:16.487Z,40.76
2023-08-26T10:58:47.189Z,41.25
2023-08-26T11:01:15.012Z,42.12
2023-08-26T11:03:43.894Z,44.31
2023-08-26T11:06:14.192Z,41.40
2023-08-26T11:08:53.514Z,37.03
2023-08-26T11:11:20.402Z,37.79
2023-08-26T11:13:47.689Z,40.21
2023-08-26T11:16:17.884Z,37.70
2023-08-26T11:18:45.157Z,39.67
2023-08-26T11:21:13.574Z,42.06
2023-08-26T11:23:40.895Z,41.22
2023-08-26T11:26:09.059Z,41.15
2023-08-26T11:28:35.764Z,41.23
2023-08-26T11:31:04.209Z,39.43
2023-08-26T11:33:32.214Z,39.63
2023-08-26T11:36:09.057Z,39.39
2023-08-26T11:38:38.302Z,40.45
2023-08-26T11:41:09.483Z,40.76
2023-08-26T11:43:37.007Z,39.89
2023-08-26T11:46:05.914Z,37.76
2023-08-26T11:48:36.327Z,38.28
2023-08-26T11:51:04.695Z,40.25
2023-08-26T11:53:32.364Z,40.43
2023-08-26T11:55:59.370Z,41.29
2023-08-26T11:58:29.419Z,42.33
2023-08-26T12:00:56.983Z,41.04
2023-08-26T12:03:24.423Z,40.28
2023-08-26T12:05:57.127Z,38.90
2023-08-26T12:08:24.286Z,40.98
2023-08-26T12:10:52.309Z,40.37
2023-08-26T12:13:19.123Z,39.58
2023-08-26T12:15:46.407Z,40.18
2023-08-26T12:18:13.891Z,39.32
2023-08-26T12:20:45.984Z,39.58
2023-08-26T12:23:13.641Z,40.03
2023-08-26T12:25:43.093Z,39.96
2023-08-26T12:28:13.901Z,39.54
2023-08-26T12:30:45.533Z,38.38
2023-08-26T12:33:23.605Z,38.18
2023-08-26T12:35:53.908Z,38.34
2023-08-26T12:38:20.912Z,38.27
2023-08-26T12:40:51.055Z,37.73
2023-08-26T12:43:20.106Z,37.05
2023-08-26T12:45:48.068Z,37.02
2023-08-26T12:48:21.962Z,37.89
2023-08-26T12:50:54.546Z,37.89
2023-08-26T12:53:21.791Z,37.99
2023-08-26T12:55:48.561Z,37.50
2023-08-26T12:58:23.475Z,35.99
2023-08-26T13:00:50.159Z,36.26
2023-08-26T13:03:17.043Z,37.34
2023-08-26T13:05:44.486Z,35.98
2023-08-26T13:08:11.130Z,35.89
2023-08-26T13:10:37.812Z,37.26
2023-08-26T13:13:04.705Z,36.04
2023-08-26T13:15:32.529Z,35.85
2023-08-26T13:17:59.401Z,35.10
2023-08-26T13:20:26.591Z,34.56
2023-08-26T13:22:53.204Z,35.50
2023-08-26T13:25:19.863Z,34.74
2023-08-26T13:27:46.488Z,35.92
2023-08-26T13:30:14.046Z,36.90
2023-08-26T13:32:41.915Z,37.64
2023-08-26T13:35:09.216Z,38.16
2023-08-26T13:37:36.035Z,38.92
2023-08-26T13:40:02.703Z,37.75
2023-08-26T13:42:29.344Z,39.44
2023-08-26T13:44:55.974Z,38.32
2023-08-26T13:47:24.341Z,38.89
2023-08-26T13:49:51.213Z,39.95
2023-08-26T13:52:18.235Z,38.58
2023-08-26T13:54:45.468Z,38.86
2023-08-26T13:57:12.135Z,38.97
2023-08-26T13:59:39.191Z,40.36
2023-08-26T14:02:09.368Z,40.11
2023-08-26T14:04:36.038Z,40.50
2023-08-26T14:07:03.008Z,39.87
2023-08-26T14:09:29.732Z,41.26
2023-08-26T14:11:59.920Z,40.81
2023-08-26T14:14:26.611Z,41.25
2023-08-26T14:16:53.259Z,41.26
2023-08-26T14:19:19.945Z,39.96
2023-08-26T14:21:46.621Z,41.00
2023-08-26T14:24:13.254Z,42.18
2023-08-26T14:26:40.309Z,41.97
2023-08-26T14:29:07.000Z,40.54
2023-08-26T14:31:33.757Z,41.61
2023-08-26T14:34:00.387Z,41.10
2023-08-26T14:36:27.038Z,40.83
2023-08-26T14:38:55.055Z,42.13
2023-08-26T14:41:21.781Z,42.34
2023-08-26T14:43:49.860Z,42.62
2023-08-26T14:46:16.562Z,43.58
2023-08-26T14:48:43.342Z,44.55
2023-08-26T14:51:10.495Z,44.77
2023-08-26T14:53:37.882Z,44.45
2023-08-26T14:56:04.842Z,44.54
2023-08-26T14:58:31.652Z,44.80
2023-08-26T15:00:58.421Z,45.48
2023-08-26T15:03:25.519Z,46.00
2023-08-26T15:06:01.715Z,46.40
2023-08-26T15:08:28.767Z,46.79
2023-08-26T15:10:55.487Z,47.22
2023-08-26T15:13:23.716Z,47.23
2023-08-26T15:15:51.029Z,47.56
2023-08-26T15:18:19.271Z,47.98
2023-08-26T15:20:48.394Z,48.40
2023-08-26T15:23:16.710Z,48.40
2023-08-26T15:25:48.131Z,48.60
2023-08-26T15:28:16.123Z,49.31
2023-08-26T15:30:54.538Z,49.46
2023-08-26T15:33:21.733Z,49.41
2023-08-26T15:35:57.537Z,50.51
2023-08-26T15:38:24.396Z,51.36
2023-08-26T15:40:55.150Z,50.82
2023-08-26T15:43:22.156Z,51.57
2023-08-26T15:45:48.945Z,51.31
2023-08-26T15:48:15.756Z,51.68
2023-08-26T15:50:42.944Z,51.64
2023-08-26T15:53:14.754Z,52.63
2023-08-26T15:55:42.193Z,52.37
2023-08-26T15:58:09.022Z,53.32
2023-08-26T16:00:35.714Z,53.41
2023-08-26T16:03:02.511Z,52.82
2023-08-26T16:05:29.507Z,53.52
2023-08-26T16:07:56.351Z,54.34
2023-08-26T16:10:23.519Z,55.43
2023-08-26T16:12:51.492Z,55.66
2023-08-26T16:15:18.705Z,55.35
2023-08-26T16:17:45.438Z,56.23
2023-08-26T16:20:12.204Z,56.89
2023-08-26T16:22:38.960Z,58.63
2023-08-26T16:25:06.015Z,58.39
2023-08-26T16:27:34.812Z,53.49
2023-08-26T16:30:02.922Z,49.40
2023-08-26T16:32:29.681Z,60.19
2023-08-26T16:34:56.426Z,66.71
2023-08-26T16:37:23.350Z,75.70
2023-08-26T16:39:50.580Z,77.62
2023-08-26T16:42:18.147Z,81.10
2023-08-26T16:44:45.108Z,83.86
2023-08-26T16:47:11.869Z,86.19
2023-08-26T16:49:41.006Z,87.75
2023-08-26T16:52:08.910Z,87.67
2023-08-26T16:54:35.579Z,90.02
2023-08-26T16:57:02.231Z,88.71
2023-08-26T16:59:28.873Z,89.23
2023-08-26T17:01:55.618Z,88.76
2023-08-26T17:04:22.612Z,90.72
2023-08-26T17:06:49.313Z,91.22
2023-08-26T17:09:16.290Z,90.60
2023-08-26T17:11:43.088Z,91.46
2023-08-26T17:14:10.814Z,88.91
2023-08-26T17:16:37.626Z,89.09
2023-08-26T17:19:04.747Z,88.58
2023-08-26T17:21:31.722Z,86.09
2023-08-26T17:23:59.169Z,82.42
2023-08-26T17:26:25.912Z,89.44
2023-08-26T17:28:52.600Z,88.00
2023-08-26T17:31:19.279Z,92.08
2023-08-26T17:33:46.090Z,90.46
2023-08-26T17:36:12.722Z,88.98
2023-08-26T17:38:39.518Z,83.29
2023-08-26T17:41:06.033Z,81.79
2023-08-26T17:43:33.129Z,86.84
2023-08-26T17:45:59.880Z,92.08
2023-08-26T17:48:27.675Z,95.71
2023-08-26T17:50:55.960Z,94.70
2023-08-26T17:53:23.559Z,94.44
2023-08-26T17:55:52.244Z,91.43
2023-08-26T17:58:19.005Z,88.56
2023-08-26T18:00:45.579Z,85.29
2023-08-26T18:03:13.649Z,90.01
2023-08-26T18:05:40.663Z,92.34
2023-08-26T18:08:08.604Z,95.42
2023-08-26T18:10:35.900Z,95.53
2023-08-26T18:13:07.861Z,94.09
2023-08-26T18:15:36.524Z,95.14
2023-08-26T18:18:04.053Z,93.47
2023-08-26T18:20:30.795Z,93.43
2023-08-26T18:22:58.001Z,92.28
2023-08-26T18:25:24.964Z,89.83
2023-08-26T18:27:51.666Z,92.27
2023-08-26T18:30:19.049Z,90.97
2023-08-26T18:32:45.897Z,93.42
2023-08-26T18:35:13.349Z,97.21
2023-08-26T18:37:40.876Z,93.98
2023-08-26T18:40:09.579Z,94.85
2023-08-26T18:42:36.387Z,94.32
2023-08-26T18:45:03.699Z,97.05
2023-08-26T18:47:30.535Z,98.31
2023-08-26T18:49:57.446Z,94.36
2023-08-26T18:52:24.193Z,88.83
2023-08-26T18:54:50.760Z,85.97
2023-08-26T18:57:18.991Z,85.56
2023-08-26T18:59:46.756Z,85.79
2023-08-26T19:02:13.561Z,85.91
2023-08-26T19:04:40.650Z,82.82
2023-08-26T19:07:07.963Z,86.29
2023-08-26T19:09:34.711Z,85.76
2023-08-26T19:12:02.123Z,88.75
2023-08-26T19:14:28.780Z,91.03
2023-08-26T19:16:55.850Z,92.98
2023-08-26T19:19:23.255Z,93.73
2023-08-26T19:21:50.032Z,94.88
2023-08-26T19:24:16.617Z,92.81
2023-08-26T19:26:45.217Z,90.60
2023-08-26T19:29:12.225Z,91.88
2023-08-26T19:31:39.016Z,91.40
2023-08-26T19:34:05.588Z,93.16
2023-08-26T19:36:32.276Z,96.15
2023-08-26T19:38:59.250Z,96.61
2023-08-26T19:41:26.069Z,96.12
2023-08-26T19:43:53.358Z,95.44
2023-08-26T19:46:20.104Z,94.79
2023-08-26T19:48:56.139Z,94.22
2023-08-26T19:51:25.565Z,93.46
2023-08-26T19:53:54.595Z,95.39
2023-08-26T19:56:21.480Z,94.05
2023-08-26T19:58:49.066Z,94.52
2023-08-26T20:01:18.709Z,93.73
2023-08-26T20:03:45.723Z,95.32
2023-08-26T20:06:12.546Z,94.96
2023-08-26T20:08:39.045Z,92.92
2023-08-26T20:11:05.674Z,96.19
2023-08-26T20:13:32.366Z,97.10
2023-08-26T20:16:00.137Z,97.92
2023-08-26T20:18:26.880Z,99.26
2023-08-26T20:20:57.484Z,95.94
2023-08-26T20:23:26.960Z,90.31
2023-08-26T20:25:57.626Z,89.93
2023-08-26T20:28:25.512Z,90.06
2023-08-26T20:31:02.007Z,92.83
2023-08-26T20:33:29.268Z,88.16
2023-08-26T20:35:56.940Z,88.89
2023-08-26T20:38:24.420Z,92.15
2023-08-26T20:40:51.354Z,94.10
2023-08-26T20:43:19.704Z,95.49
2023-08-26T20:45:46.469Z,95.17
2023-08-26T20:48:13.130Z,96.96
2023-08-26T20:50:39.681Z,96.90
2023-08-26T20:53:06.430Z,95.76
2023-08-26T20:55:33.070Z,95.66
2023-08-26T20:58:00.534Z,95.71
2023-08-26T21:00:27.240Z,96.37
2023-08-26T21:02:54.102Z,97.02
2023-08-26T21:05:20.758Z,97.20
2023-08-26T21:07:47.358Z,96.83
2023-08-26T21:10:14.058Z,96.09
2023-08-26T21:12:40.738Z,96.43
2023-08-26T21:15:08.214Z,97.26
2023-08-26T21:17:34.895Z,96.28
2023-08-26T21:20:01.479Z,96.63
2023-08-26T21:22:28.124Z,96.39
2023-08-26T21:25:29.810Z,95.72
2023-08-26T21:27:56.480Z,95.51
2023-08-26T21:30:23.088Z,95.88
2023-08-26T21:32:49.721Z,95.47
2023-08-26T21:35:17.036Z,95.54
2023-08-26T21:37:44.799Z,95.66
2023-08-26T21:40:14.472Z,95.02
2023-08-26T21:42:41.263Z,95.11
2023-08-26T21:45:10.306Z,94.42
2023-08-26T21:47:37.436Z,95.62
2023-08-26T21:50:04.573Z,95.17
2023-08-26T21:52:31.206Z,94.70
2023-08-26T21:54:57.881Z,95.58
2023-08-26T21:57:24.410Z,95.63
2023-08-26T21:59:51.120Z,95.26
2023-08-26T22:02:17.952Z,95.83
2023-08-26T22:04:44.744Z,96.77
2023-08-26T22:07:12.839Z,96.49
2023-08-26T22:09:40.241Z,96.91
2023-08-26T22:12:07.273Z,96.25
2023-08-26T22:14:33.931Z,96.75
2023-08-26T22:17:00.471Z,95.65
2023-08-26T22:19:27.097Z,94.62
2023-08-26T22:21:53.776Z,97.11
2023-08-26T22:24:21.443Z,96.70
2023-08-26T22:26:48.887Z,96.28
2023-08-26T22:29:15.580Z,95.46
2023-08-26T22:31:42.077Z,94.24
2023-08-26T22:34:08.747Z,94.86
2023-08-26T22:36:35.374Z,96.65
2023-08-26T22:39:14.159Z,96.78
2023-08-26T22:41:45.700Z,97.30
2023-08-26T22:44:12.224Z,97.43
2023-08-26T22:46:39.609Z,97.52
2023-08-26T22:49:06.335Z,96.73
2023-08-26T22:51:32.884Z,97.25
2023-08-26T22:53:59.586Z,96.29
2023-08-26T22:56:26.132Z,95.62
2023-08-26T22:58:52.881Z,95.42
2023-08-26T23:01:19.661Z,96.00
2023-08-26T23:03:46.373Z,96.09
2023-08-26T23:06:12.870Z,96.07
2023-08-26T23:08:39.495Z,95.95
2023-08-26T23:11:06.177Z,96.59
2023-08-26T23:13:32.696Z,97.74
2023-08-26T23:15:59.390Z,97.24
2023-08-26T23:18:26.895Z,97.24
2023-08-26T23:20:53.652Z,96.94
2023-08-26T23:23:20.487Z,97.39
2023-08-26T23:25:47.134Z,98.02
2023-08-26T23:28:13.634Z,98.62
2023-08-26T23:30:43.772Z,98.57
2023-08-26T23:33:11.478Z,98.60
2023-08-26T23:35:38.160Z,97.89
2023-08-26T23:38:05.318Z,97.15
2023-08-26T23:40:32.025Z,96.40
2023-08-26T23:42:59.067Z,96.21
2023-08-26T23:45:25.912Z,95.60
2023-08-26T23:47:52.451Z,95.70
2023-08-26T23:50:21.224Z,95.76
2023-08-26T23:52:50.004Z,95.85
2023-08-26T23:55:17.992Z,96.45
2023-08-26T23:57:44.848Z,97.32
